Time;durP1;ratioP1;P1;durP2;ratioP2;P2;SDS_P1;SDS_P2;PMS_P1;PMS_P2;Temp;Humidity;BMP_temperature;BMP_pressure;BME280_temperature;BME280_humidity;BME280_pressure;Samples;Min_cycle;Max_cycle;Signal;HPM_P1;HPM_P2
2021/11/11 00:01:40;;;;;;;10.17;8.17;;;6.10;99.90;;;;;;5015060;28;21044;-78
2021/11/11 00:04:09;;;;;;;9.57;7.87;;;6.10;99.90;;;;;;5014611;28;20616;-77
2021/11/11 00:06:39;;;;;;;10.60;8.40;;;6.00;99.90;;;;;;5013186;28;20619;-77
2021/11/11 00:09:05;;;;;;;10.30;7.78;;;6.00;99.90;;;;;;4997231;28;20174;-77
2021/11/11 00:11:31;;;;;;;12.70;8.50;;;6.00;99.90;;;;;;5014827;28;20187;-79
2021/11/11 00:13:57;;;;;;;9.68;8.30;;;6.00;99.90;;;;;;5014253;28;20564;-77
2021/11/11 00:16:22;;;;;;;10.23;8.70;;;5.90;99.90;;;;;;5013834;28;20659;-77
2021/11/11 00:18:48;;;;;;;11.33;8.87;;;5.90;99.90;;;;;;4997041;28;20984;-77
2021/11/11 00:21:14;;;;;;;9.90;7.57;;;5.90;99.90;;;;;;5017584;28;20668;-77
2021/11/11 00:23:42;;;;;;;9.40;7.50;;;5.90;99.90;;;;;;5014716;28;20569;-77
2021/11/11 00:26:08;;;;;;;8.95;7.63;;;5.90;99.90;;;;;;5014749;28;20206;-78
2021/11/11 00:28:34;;;;;;;9.45;7.05;;;5.90;99.90;;;;;;5015184;28;20166;-78
2021/11/11 00:31:00;;;;;;;10.17;7.97;;;5.90;99.90;;;;;;5014932;28;20194;-78
2021/11/11 00:33:27;;;;;;;8.57;7.55;;;5.90;99.90;;;;;;4996417;28;20205;-78
2021/11/11 00:35:53;;;;;;;11.45;7.95;;;5.90;99.90;;;;;;4996476;28;20674;-78
2021/11/11 00:38:20;;;;;;;10.50;8.33;;;5.80;99.90;;;;;;4996462;28;20213;-77
2021/11/11 00:40:46;;;;;;;9.57;8.13;;;5.80;99.90;;;;;;4995620;28;20663;-77
2021/11/11 00:43:11;;;;;;;10.57;8.50;;;5.80;99.90;;;;;;5013361;28;20162;-77
2021/11/11 00:45:38;;;;;;;10.40;8.33;;;5.80;99.90;;;;;;4996083;28;20566;-77
2021/11/11 00:48:05;;;;;;;8.85;7.70;;;5.80;99.90;;;;;;4996540;28;20628;-77
2021/11/11 00:50:32;;;;;;;10.48;8.35;;;5.80;99.90;;;;;;4995814;28;20195;-77
2021/11/11 00:52:58;;;;;;;9.90;7.90;;;5.80;99.90;;;;;;5019242;28;20570;-77
2021/11/11 00:55:24;;;;;;;10.25;7.78;;;5.80;99.90;;;;;;5017969;28;20166;-77
2021/11/11 00:58:10;;;;;;;9.77;7.80;;;5.70;99.90;;;;;;5022830;28;20189;-77
2021/11/11 01:00:38;;;;;;;8.10;7.17;;;5.70;99.90;;;;;;4997196;28;20241;-77
2021/11/11 01:03:05;;;;;;;10.32;8.07;;;5.70;99.90;;;;;;5013480;28;20916;-77
2021/11/11 01:05:32;;;;;;;10.77;8.55;;;5.70;99.90;;;;;;4979518;28;20170;-77
2021/11/11 01:07:58;;;;;;;10.70;8.25;;;5.70;99.90;;;;;;4994410;28;20166;-77
2021/11/11 01:10:25;;;;;;;10.60;8.35;;;5.60;99.90;;;;;;4995099;28;20565;-76
2021/11/11 01:12:52;;;;;;;10.25;8.18;;;5.60;99.90;;;;;;4995900;28;20190;-76
2021/11/11 01:15:21;;;;;;;12.55;8.00;;;5.50;99.90;;;;;;5014907;28;20181;-76
2021/11/11 01:17:47;;;;;;;8.63;7.82;;;5.50;99.90;;;;;;5014272;28;20236;-76
2021/11/11 01:20:14;;;;;;;11.18;9.07;;;5.50;99.90;;;;;;4998590;28;20218;-77
2021/11/11 01:22:42;;;;;;;12.13;8.90;;;5.50;99.90;;;;;;4979563;28;20206;-78
2021/11/11 01:25:12;;;;;;;11.18;8.70;;;5.40;99.90;;;;;;4995397;28;20526;-77
2021/11/11 01:27:38;;;;;;;11.80;9.43;;;5.40;99.90;;;;;;4978926;28;20202;-77
2021/11/11 01:30:11;;;;;;;11.00;8.20;;;5.40;99.90;;;;;;5014452;28;20200;-76
2021/11/11 01:32:38;;;;;;;8.00;6.95;;;5.40;99.90;;;;;;4994775;28;20521;-77
2021/11/11 01:35:05;;;;;;;13.90;10.07;;;5.40;99.90;;;;;;4995412;28;20166;-77
2021/11/11 01:37:34;;;;;;;13.50;9.23;;;5.30;99.90;;;;;;4994661;28;20209;-77
2021/11/11 01:40:01;;;;;;;12.30;9.15;;;5.30;99.90;;;;;;4994734;28;20186;-77
2021/11/11 01:42:26;;;;;;;11.48;8.70;;;5.30;99.90;;;;;;5012744;23;20217;-85
2021/11/11 01:44:55;;;;;;;11.20;8.98;;;5.30;99.90;;;;;;4997055;28;20541;-85
2021/11/11 01:47:28;;;;;;;12.25;8.70;;;5.30;99.90;;;;;;4997636;28;20652;-85
2021/11/11 01:49:54;;;;;;;9.30;7.87;;;5.20;99.90;;;;;;4997897;28;20200;-85
2021/11/11 01:52:20;;;;;;;14.33;10.87;;;5.20;99.90;;;;;;5021039;28;20630;-85
2021/11/11 01:54:51;;;;;;;11.63;10.05;;;5.20;99.90;;;;;;5034701;28;20177;-85
2021/11/11 01:57:18;;;;;;;13.70;9.48;;;5.10;99.90;;;;;;5033321;28;20177;-85
2021/11/11 01:59:49;;;;;;;13.30;9.43;;;5.10;99.90;;;;;;4998806;28;20181;-85
2021/11/11 02:02:25;;;;;;;11.80;9.90;;;5.10;99.90;;;;;;5032804;28;20276;-85
2021/11/11 02:04:51;;;;;;;11.63;8.30;;;5.10;99.90;;;;;;5030604;28;20593;-85
2021/11/11 02:07:16;;;;;;;13.97;9.80;;;5.10;99.90;;;;;;5015447;28;20201;-85
2021/11/11 02:12:32;;;;;;;12.77;9.35;;;5.00;99.90;;;;;;5040592;23;20316;-85
2021/11/11 02:15:03;;;;;;;11.63;9.73;;;5.00;99.90;;;;;;5011044;28;20545;-85
2021/11/11 02:17:32;;;;;;;13.85;9.30;;;5.00;99.90;;;;;;4993906;28;20174;-85
2021/11/11 02:20:16;;;;;;;12.30;7.85;;;5.00;99.90;;;;;;4997263;28;20522;-85
2021/11/11 02:23:05;;;;;;;11.95;8.90;;;5.00;99.90;;;;;;4996971;28;20190;-84
2021/11/11 02:25:51;;;;;;;9.57;7.97;;;5.00;99.90;;;;;;5029791;28;20194;-85
2021/11/11 02:28:20;;;;;;;10.43;8.88;;;4.90;99.90;;;;;;5013067;28;20170;-84
2021/11/11 02:30:49;;;;;;;10.30;8.60;;;4.90;99.90;;;;;;5010889;28;20170;-84
2021/11/11 02:33:23;;;;;;;9.73;7.18;;;4.80;99.90;;;;;;5018504;28;20190;-84
2021/11/11 02:35:50;;;;;;;10.40;7.97;;;4.80;99.90;;;;;;5012622;28;20173;-84
2021/11/11 02:38:17;;;;;;;10.50;8.20;;;4.80;99.90;;;;;;5012292;28;20213;-84
2021/11/11 02:40:44;;;;;;;9.70;8.25;;;4.80;99.90;;;;;;5010787;28;20671;-84
2021/11/11 02:43:11;;;;;;;10.75;7.68;;;4.70;99.90;;;;;;5011585;28;20244;-84
2021/11/11 02:45:41;;;;;;;8.90;7.50;;;4.70;99.90;;;;;;5011913;28;20167;-84
2021/11/11 02:48:10;;;;;;;13.23;8.73;;;4.70;99.90;;;;;;5012907;28;20269;-85
2021/11/11 02:50:44;;;;;;;12.13;8.85;;;4.70;99.90;;;;;;5011917;28;20262;-85
2021/11/11 02:53:10;;;;;;;12.13;9.55;;;4.70;99.90;;;;;;4996435;28;20190;-84
2021/11/11 02:55:39;;;;;;;14.57;10.07;;;4.60;99.90;;;;;;5010234;28;20175;-84
2021/11/11 02:58:06;;;;;;;13.35;10.55;;;4.60;99.90;;;;;;5035009;28;20179;-84
2021/11/11 03:01:03;;;;;;;10.75;9.65;;;4.60;99.90;;;;;;5035096;28;20166;-85
2021/11/11 03:03:30;;;;;;;10.93;9.68;;;4.60;99.90;;;;;;5018567;28;20214;-85
2021/11/11 03:05:58;;;;;;;9.77;7.45;;;4.60;99.90;;;;;;5034702;28;20261;-85
2021/11/11 03:08:24;;;;;;;11.15;9.70;;;4.60;99.90;;;;;;5039208;28;20170;-84
2021/11/11 03:10:53;;;;;;;9.82;8.07;;;4.50;99.90;;;;;;5048362;28;20606;-85
2021/11/11 03:13:23;;;;;;;14.95;10.32;;;4.50;99.90;;;;;;5017726;28;20190;-85
2021/11/11 03:15:58;;;;;;;11.55;9.00;;;4.50;99.90;;;;;;5014614;28;20166;-85
2021/11/11 03:18:25;;;;;;;11.57;8.30;;;4.50;99.90;;;;;;5019019;28;20162;-85
2021/11/11 03:20:52;;;;;;;9.50;7.53;;;4.50;99.90;;;;;;5019956;28;20532;-85
2021/11/11 03:23:17;;;;;;;9.30;7.50;;;4.50;99.90;;;;;;5038352;28;20196;-84
2021/11/11 03:25:43;;;;;;;10.80;8.02;;;4.50;99.90;;;;;;5016075;28;20577;-84
2021/11/11 03:28:10;;;;;;;8.00;6.93;;;4.50;99.90;;;;;;5015233;28;20193;-84
2021/11/11 03:30:39;;;;;;;8.15;7.35;;;4.40;99.90;;;;;;5014174;28;20171;-84
2021/11/11 03:33:06;;;;;;;9.00;7.38;;;4.40;99.90;;;;;;5014144;28;20178;-84
2021/11/11 03:35:38;;;;;;;8.98;7.60;;;4.40;99.90;;;;;;5013713;28;20225;-83
2021/11/11 03:38:08;;;;;;;13.18;7.05;;;4.40;99.90;;;;;;5013919;28;20166;-83
2021/11/11 03:40:38;;;;;;;8.10;6.10;;;4.40;99.90;;;;;;5013638;28;20197;-84
2021/11/11 03:43:06;;;;;;;10.25;9.18;;;4.30;99.90;;;;;;4997141;28;20560;-84
2021/11/11 03:45:55;;;;;;;8.32;6.68;;;4.30;99.90;;;;;;5036152;28;20221;-84
2021/11/11 03:48:21;;;;;;;9.82;8.10;;;4.30;99.90;;;;;;5018384;28;20174;-84
2021/11/11 03:50:47;;;;;;;12.93;10.00;;;4.30;99.90;;;;;;5015912;28;20186;-84
2021/11/11 03:53:14;;;;;;;10.35;8.00;;;4.30;99.90;;;;;;5015170;28;20229;-84
2021/11/11 03:55:41;;;;;;;9.00;8.10;;;4.20;99.90;;;;;;5013161;28;20181;-84
2021/11/11 03:58:15;;;;;;;12.57;8.48;;;4.20;99.90;;;;;;5014862;28;20174;-84
2021/11/11 04:00:41;;;;;;;14.68;10.63;;;4.20;99.90;;;;;;4997208;28;20178;-84
2021/11/11 04:03:07;;;;;;;9.90;8.40;;;4.10;99.90;;;;;;5014470;28;20241;-85
2021/11/11 04:05:34;;;;;;;9.20;7.33;;;4.20;99.90;;;;;;5012819;28;20167;-84
2021/11/11 04:08:00;;;;;;;9.30;8.15;;;4.10;99.90;;;;;;5029771;28;20771;-85
2021/11/11 04:10:27;;;;;;;9.60;8.52;;;4.10;99.90;;;;;;4988112;28;20219;-85
2021/11/11 04:13:01;;;;;;;16.48;10.48;;;4.10;99.90;;;;;;5013314;28;20182;-84
2021/11/11 04:15:28;;;;;;;11.93;8.82;;;4.10;99.90;;;;;;5000266;28;20252;-84
2021/11/11 04:17:54;;;;;;;13.27;8.13;;;4.10;99.90;;;;;;5016190;28;20265;-84
2021/11/11 04:20:20;;;;;;;10.57;8.33;;;4.10;99.90;;;;;;5016996;28;20579;-84
2021/11/11 04:22:46;;;;;;;11.00;9.60;;;4.10;99.90;;;;;;5013989;28;20613;-83
2021/11/11 04:25:20;;;;;;;11.80;7.88;;;4.10;99.90;;;;;;5017946;28;20261;-84
2021/11/11 04:27:53;;;;;;;10.35;8.00;;;4.10;99.90;;;;;;5012136;28;20205;-84
2021/11/11 04:30:30;;;;;;;11.38;9.40;;;4.10;99.90;;;;;;4999194;28;20312;-84
2021/11/11 04:32:57;;;;;;;9.73;6.45;;;4.10;99.90;;;;;;5012400;28;20190;-83
2021/11/11 04:35:23;;;;;;;10.07;7.68;;;4.10;99.90;;;;;;5033018;28;20262;-84
2021/11/11 04:40:54;;;;;;;7.55;6.75;;;4.00;99.90;;;;;;5012649;28;20177;-85
2021/11/11 04:49:37;;;;;;;8.90;7.40;;;4.00;99.90;;;;;;5012326;28;20170;-85
2021/11/11 05:04:41;;;;;;;12.77;8.15;;;4.00;99.90;;;;;;4995556;28;20189;-85
2021/11/11 05:07:07;;;;;;;10.05;7.68;;;4.10;99.90;;;;;;4979878;28;20558;-85
2021/11/11 05:09:33;;;;;;;25.43;11.63;;;4.20;99.90;;;;;;5011838;28;20173;-83
2021/11/11 05:11:59;;;;;;;11.17;8.97;;;4.20;99.90;;;;;;5012037;28;20198;-84
2021/11/11 05:14:25;;;;;;;10.57;8.40;;;4.10;99.90;;;;;;5032472;28;20568;-84
2021/11/11 05:16:51;;;;;;;21.88;9.95;;;4.20;99.90;;;;;;5011575;28;20175;-84
2021/11/11 05:19:20;;;;;;;11.70;8.35;;;4.20;99.90;;;;;;5014710;28;20166;-83
2021/11/11 05:21:45;;;;;;;53.63;9.60;;;4.20;99.90;;;;;;4995732;28;20661;-84
2021/11/11 05:24:12;;;;;;;26.73;10.32;;;4.30;99.90;;;;;;4997352;28;20170;-83
2021/11/11 05:26:40;;;;;;;14.43;9.20;;;4.20;99.90;;;;;;5012213;28;20285;-83
2021/11/11 05:29:08;;;;;;;14.82;8.43;;;4.20;99.90;;;;;;5013355;28;20224;-83
2021/11/11 05:31:36;;;;;;;18.42;8.35;;;4.10;99.90;;;;;;5012930;28;20204;-83
2021/11/11 05:34:02;;;;;;;21.77;9.53;;;4.20;99.90;;;;;;5012818;28;20693;-83
2021/11/11 05:36:28;;;;;;;15.65;7.97;;;4.20;99.90;;;;;;5012606;28;20669;-83
2021/11/11 05:38:54;;;;;;;28.60;8.95;;;4.20;99.90;;;;;;5014943;28;20222;-84
2021/11/11 05:41:20;;;;;;;8.70;7.30;;;4.20;99.90;;;;;;5014811;28;20661;-83
2021/11/11 05:43:50;;;;;;;15.50;9.05;;;4.20;99.90;;;;;;5012873;28;20613;-83
2021/11/11 05:46:17;;;;;;;11.50;7.82;;;4.20;99.90;;;;;;4998651;28;20565;-84
2021/11/11 05:48:46;;;;;;;12.07;7.70;;;4.20;99.90;;;;;;5013619;28;20638;-83
2021/11/11 05:51:12;;;;;;;14.80;7.80;;;4.30;99.90;;;;;;5015638;28;20198;-84
2021/11/11 05:53:39;;;;;;;15.07;8.32;;;4.30;99.90;;;;;;4996339;28;20634;-84
2021/11/11 05:56:05;;;;;;;24.07;10.33;;;4.40;99.90;;;;;;5012667;28;20181;-85
2021/11/11 05:58:31;;;;;;;42.15;11.05;;;4.30;99.90;;;;;;5018828;28;20182;-84
2021/11/11 06:00:58;;;;;;;88.75;13.13;;;4.30;99.90;;;;;;5015718;28;20171;-82
2021/11/11 06:03:32;;;;;;;22.30;9.30;;;4.30;99.90;;;;;;5014207;28;20228;-82
2021/11/11 06:06:01;;;;;;;12.32;8.98;;;4.30;99.90;;;;;;5013719;28;20541;-83
2021/11/11 06:08:33;;;;;;;13.40;8.25;;;4.30;99.90;;;;;;5014408;28;20219;-82
2021/11/11 06:10:59;;;;;;;15.48;9.85;;;4.30;99.90;;;;;;5014758;28;20264;-82
2021/11/11 06:13:25;;;;;;;19.63;9.40;;;4.30;99.90;;;;;;5031834;28;20596;-83
2021/11/11 06:15:52;;;;;;;14.13;8.77;;;4.30;99.90;;;;;;5014598;28;20180;-82
2021/11/11 06:18:20;;;;;;;14.07;9.40;;;4.30;99.90;;;;;;5030668;28;20256;-82
2021/11/11 06:20:49;;;;;;;16.40;11.10;;;4.30;99.90;;;;;;5031540;28;20177;-83
2021/11/11 06:23:15;;;;;;;17.23;9.07;;;4.30;99.90;;;;;;5014838;28;20206;-84
2021/11/11 06:25:43;;;;;;;15.77;10.55;;;4.30;99.90;;;;;;5020817;28;20235;-83
2021/11/11 06:28:09;;;;;;;20.25;8.82;;;4.40;99.90;;;;;;5024458;28;20174;-83
2021/11/11 06:30:35;;;;;;;12.45;8.68;;;4.30;99.90;;;;;;5020815;28;20163;-84
2021/11/11 06:33:04;;;;;;;11.68;9.65;;;4.30;99.90;;;;;;5015771;28;20290;-83
2021/11/11 06:35:32;;;;;;;17.17;9.32;;;4.30;99.90;;;;;;5016123;28;20533;-83
2021/11/11 06:37:59;;;;;;;31.92;10.65;;;4.40;99.90;;;;;;5038705;28;20166;-84
2021/11/11 06:40:27;;;;;;;13.23;9.73;;;4.30;99.90;;;;;;5034415;28;20280;-83
2021/11/11 06:42:55;;;;;;;41.55;12.27;;;4.20;99.90;;;;;;5022439;28;20194;-83
2021/11/11 06:45:21;;;;;;;32.30;12.25;;;4.20;99.90;;;;;;5027231;28;20250;-84
2021/11/11 06:47:47;;;;;;;12.75;8.77;;;4.10;99.90;;;;;;5025220;28;20229;-85
2021/11/11 06:50:13;;;;;;;23.97;11.30;;;4.10;99.90;;;;;;5039982;28;20174;-84
2021/11/11 06:52:39;;;;;;;23.07;9.77;;;4.10;99.90;;;;;;5042831;28;20194;-84
2021/11/11 06:55:07;;;;;;;14.35;9.30;;;4.10;99.90;;;;;;5040923;28;20534;-83
2021/11/11 06:57:33;;;;;;;18.85;9.70;;;4.10;99.90;;;;;;5049012;28;20641;-84
2021/11/11 07:00:07;;;;;;;22.15;9.60;;;4.10;99.90;;;;;;5033173;28;20178;-84
2021/11/11 07:02:33;;;;;;;15.48;9.75;;;4.10;99.90;;;;;;5088051;23;20214;-86
2021/11/11 07:05:00;;;;;;;15.77;8.98;;;4.10;99.90;;;;;;5016840;28;20313;-85
2021/11/11 07:07:25;;;;;;;15.90;9.40;;;4.10;99.90;;;;;;5034191;28;20661;-84
2021/11/11 07:09:55;;;;;;;17.55;10.98;;;4.20;99.90;;;;;;5051917;28;20564;-85
2021/11/11 07:12:23;;;;;;;13.80;9.73;;;4.30;99.90;;;;;;5037700;28;20190;-84
2021/11/11 07:14:49;;;;;;;17.00;9.23;;;4.40;99.90;;;;;;5053888;28;20224;-85
2021/11/11 07:17:15;;;;;;;13.70;9.93;;;4.40;99.90;;;;;;5047810;28;20162;-84
2021/11/11 07:19:41;;;;;;;38.97;11.50;;;4.40;99.90;;;;;;5050351;28;20170;-84
2021/11/11 07:22:07;;;;;;;26.80;10.50;;;4.50;99.90;;;;;;5043871;28;20612;-83
2021/11/11 07:24:33;;;;;;;12.65;9.00;;;4.40;99.90;;;;;;5040892;28;21294;-83
2021/11/11 07:27:00;;;;;;;21.23;9.17;;;4.40;99.90;;;;;;5025223;28;20206;-83
2021/11/11 07:29:28;;;;;;;22.25;9.27;;;4.50;99.90;;;;;;5029221;28;20584;-83
2021/11/11 07:31:54;;;;;;;9.75;8.07;;;4.50;99.90;;;;;;5042466;28;20185;-83
2021/11/11 07:34:22;;;;;;;32.20;8.52;;;4.50;99.90;;;;;;5024371;28;20201;-84
2021/11/11 07:36:49;;;;;;;25.67;7.60;;;4.50;99.90;;;;;;5046034;28;20557;-83
2021/11/11 07:39:18;;;;;;;28.70;9.30;;;4.60;99.90;;;;;;5012188;28;20180;-83
2021/11/11 07:41:47;;;;;;;14.13;8.30;;;4.50;99.90;;;;;;5022945;28;20169;-83
2021/11/11 07:44:18;;;;;;;13.05;8.32;;;4.40;99.90;;;;;;5046809;28;20181;-83
2021/11/11 07:46:44;;;;;;;12.20;9.17;;;4.40;99.90;;;;;;5022093;28;20269;-82
2021/11/11 07:49:11;;;;;;;18.02;6.95;;;4.40;99.90;;;;;;5045512;28;20166;-81
2021/11/11 07:51:36;;;;;;;12.63;8.63;;;4.50;99.90;;;;;;5024167;28;20173;-82
2021/11/11 07:54:03;;;;;;;13.03;8.37;;;4.50;99.90;;;;;;5051954;28;20173;-82
2021/11/11 07:56:29;;;;;;;17.27;8.40;;;4.60;99.90;;;;;;5056519;28;20185;-82
2021/11/11 07:58:55;;;;;;;13.68;8.25;;;4.70;99.90;;;;;;5045724;28;20178;-82
2021/11/11 08:01:21;;;;;;;18.60;8.50;;;4.70;99.90;;;;;;5050436;28;20584;-82
2021/11/11 08:03:47;;;;;;;11.30;8.57;;;4.80;99.90;;;;;;5046267;28;20194;-82
2021/11/11 08:06:13;;;;;;;19.88;8.82;;;4.80;99.90;;;;;;5047231;28;20639;-82
2021/11/11 08:08:40;;;;;;;18.83;9.27;;;4.90;99.90;;;;;;5005224;28;20177;-82
2021/11/11 08:11:06;;;;;;;37.35;12.57;;;4.90;99.90;;;;;;5004141;28;20600;-83
2021/11/11 08:13:32;;;;;;;16.77;9.85;;;4.90;99.90;;;;;;5052148;28;20257;-84
2021/11/11 08:15:59;;;;;;;27.92;10.88;;;4.80;99.90;;;;;;5045801;28;20228;-83
2021/11/11 08:18:24;;;;;;;15.27;7.70;;;4.80;99.90;;;;;;5039869;28;20150;-84
2021/11/11 08:20:54;;;;;;;12.93;8.87;;;4.80;99.90;;;;;;5045434;28;20173;-83
2021/11/11 08:23:21;;;;;;;18.10;8.60;;;4.80;99.90;;;;;;5098377;23;20671;-83
2021/11/11 08:25:51;;;;;;;23.50;9.35;;;4.80;99.90;;;;;;5040498;28;20162;-82
2021/11/11 08:28:20;;;;;;;17.58;10.55;;;4.90;99.90;;;;;;5047354;23;20229;-82
2021/11/11 08:30:47;;;;;;;19.75;10.70;;;4.90;99.90;;;;;;5019689;28;20224;-82
2021/11/11 08:33:14;;;;;;;12.15;9.32;;;5.00;99.90;;;;;;5038411;28;20186;-82
2021/11/11 08:35:42;;;;;;;23.90;8.77;;;5.10;99.90;;;;;;5015958;28;20205;-82
2021/11/11 08:38:12;;;;;;;12.68;9.75;;;5.30;99.90;;;;;;5018223;28;20185;-82
2021/11/11 08:40:39;;;;;;;18.40;10.55;;;5.30;99.90;;;;;;5030755;28;20159;-82
2021/11/11 08:43:05;;;;;;;21.33;10.77;;;5.40;99.90;;;;;;5001748;28;20201;-81
2021/11/11 08:45:36;;;;;;;13.23;8.32;;;5.40;99.90;;;;;;5010078;28;20146;-81
2021/11/11 08:48:03;;;;;;;25.15;12.18;;;5.50;99.90;;;;;;5006579;28;20589;-82
2021/11/11 08:51:00;;;;;;;15.18;10.05;;;5.60;99.90;;;;;;4992116;28;20186;-82
2021/11/11 08:53:29;;;;;;;16.00;11.35;;;5.70;99.90;;;;;;5012596;28;20533;-83
2021/11/11 08:55:56;;;;;;;17.35;10.57;;;5.80;99.90;;;;;;5023874;28;20633;-83
2021/11/11 08:58:22;;;;;;;17.85;13.25;;;5.90;99.90;;;;;;5007298;28;20265;-83
2021/11/11 09:00:52;;;;;;;16.02;12.10;;;5.90;99.90;;;;;;4991832;28;20187;-85
2021/11/11 09:03:19;;;;;;;17.98;12.30;;;5.90;99.90;;;;;;4964803;28;20754;-86
2021/11/11 09:05:46;;;;;;;21.98;15.40;;;5.90;99.90;;;;;;4966031;28;20167;-81
2021/11/11 09:08:14;;;;;;;20.88;13.48;;;6.00;99.90;;;;;;4998395;28;20175;-83
2021/11/11 09:10:42;;;;;;;17.10;13.55;;;6.00;99.90;;;;;;4997061;28;20266;-83
2021/11/11 09:13:09;;;;;;;19.75;14.18;;;6.10;99.90;;;;;;4999066;28;20191;-82
2021/11/11 09:15:35;;;;;;;19.73;13.00;;;6.20;99.90;;;;;;4981291;28;20167;-83
2021/11/11 09:18:04;;;;;;;18.75;13.52;;;6.40;99.90;;;;;;4979922;28;20198;-84
2021/11/11 09:20:32;;;;;;;23.30;12.82;;;6.40;99.90;;;;;;5007096;28;20245;-83
2021/11/11 09:23:00;;;;;;;24.92;15.52;;;6.50;99.90;;;;;;5003392;28;20178;-83
2021/11/11 09:25:27;;;;;;;23.08;16.88;;;6.50;99.90;;;;;;5005621;28;20171;-84
2021/11/11 09:27:55;;;;;;;22.67;13.77;;;6.60;99.90;;;;;;4983917;28;20213;-81
2021/11/11 09:30:28;;;;;;;22.55;14.32;;;6.50;99.90;;;;;;4999156;28;20599;-82
2021/11/11 09:32:54;;;;;;;27.83;17.40;;;6.50;99.90;;;;;;4995395;28;20577;-81
2021/11/11 09:35:21;;;;;;;28.33;15.63;;;6.40;99.90;;;;;;4965031;28;20182;-82
2021/11/11 09:37:48;;;;;;;22.23;15.57;;;6.40;99.90;;;;;;4983922;28;20182;-83
2021/11/11 09:40:17;;;;;;;22.00;14.52;;;6.30;99.90;;;;;;5009952;28;20162;-82
2021/11/11 09:42:45;;;;;;;14.95;12.55;;;6.30;99.90;;;;;;4998099;28;20189;-83
2021/11/11 09:45:13;;;;;;;20.58;14.60;;;6.40;99.90;;;;;;4985035;28;20187;-83
2021/11/11 09:47:40;;;;;;;21.13;14.43;;;6.40;99.90;;;;;;4999927;28;20270;-83
2021/11/11 09:50:09;;;;;;;20.38;14.65;;;6.50;99.90;;;;;;4993513;28;20167;-84
2021/11/11 09:52:39;;;;;;;19.33;14.30;;;6.50;99.90;;;;;;5015150;28;20221;-84
2021/11/11 10:01:14;;;;;;;19.10;14.77;;;6.70;99.90;;;;;;4963731;28;20186;-83
2021/11/11 10:03:42;;;;;;;21.05;15.27;;;6.70;99.90;;;;;;5008333;28;20213;-84
2021/11/11 10:06:23;;;;;;;27.25;17.90;;;6.80;99.90;;;;;;4994679;28;20678;-84
2021/11/11 10:08:53;;;;;;;27.13;17.30;;;6.90;99.90;;;;;;4989021;28;20167;-83
2021/11/11 10:11:38;;;;;;;25.15;16.60;;;7.00;99.90;;;;;;5007583;28;20171;-83
2021/11/11 10:14:08;;;;;;;25.27;15.57;;;7.00;99.90;;;;;;5010677;28;20185;-84
2021/11/11 10:16:36;;;;;;;24.27;16.88;;;7.00;99.90;;;;;;4993452;28;20178;-84
2021/11/11 10:19:05;;;;;;;23.23;15.45;;;7.10;99.90;;;;;;4993773;28;20167;-84
2021/11/11 10:24:47;;;;;;;24.98;17.92;;;7.30;99.90;;;;;;5008698;28;20173;-84
2021/11/11 10:30:06;;;;;;;43.92;20.30;;;7.50;99.90;;;;;;5008529;28;20193;-81
2021/11/11 10:32:41;;;;;;;30.20;20.60;;;7.60;99.90;;;;;;4997892;28;20266;-84
2021/11/11 10:35:27;;;;;;;33.40;21.15;;;7.70;99.90;;;;;;5016155;28;20202;-81
2021/11/11 10:37:59;;;;;;;23.52;17.15;;;7.70;99.90;;;;;;4980193;28;20179;-83
2021/11/11 10:40:43;;;;;;;28.55;18.70;;;7.80;99.90;;;;;;5007600;28;20174;-83
2021/11/11 10:43:21;;;;;;;31.50;20.17;;;7.90;99.90;;;;;;4987637;28;20186;-83
2021/11/11 10:45:49;;;;;;;30.58;21.10;;;8.00;99.90;;;;;;5004130;28;20179;-81
2021/11/11 10:48:17;;;;;;;31.13;20.98;;;8.00;99.90;;;;;;5009533;28;20183;-82
2021/11/11 10:50:47;;;;;;;28.15;22.30;;;8.10;99.90;;;;;;4994305;28;20159;-82
2021/11/11 10:53:19;;;;;;;26.65;18.88;;;8.10;99.90;;;;;;5004876;28;20265;-81
2021/11/11 10:55:57;;;;;;;24.85;18.27;;;8.20;99.90;;;;;;4980456;28;20167;-82
2021/11/11 10:58:28;;;;;;;25.27;20.00;;;8.20;99.90;;;;;;5008900;28;20163;-82
2021/11/11 11:01:10;;;;;;;28.13;18.60;;;8.20;99.90;;;;;;4988998;28;20186;-81
2021/11/11 11:03:43;;;;;;;23.23;19.40;;;8.30;99.90;;;;;;5003993;28;20202;-81
2021/11/11 11:06:13;;;;;;;25.45;18.92;;;8.50;99.90;;;;;;4984113;28;20202;-80
2021/11/11 11:08:42;;;;;;;23.17;18.95;;;8.60;99.90;;;;;;4983448;28;20174;-81
2021/11/11 11:11:30;;;;;;;25.88;20.15;;;8.70;99.90;;;;;;5004771;28;20532;-81
2021/11/11 11:13:56;;;;;;;29.48;20.35;;;8.80;99.90;;;;;;4996065;28;20202;-82
2021/11/11 11:16:28;;;;;;;26.80;20.20;;;9.00;99.90;;;;;;4999588;28;20190;-81
2021/11/11 11:19:26;;;;;;;25.88;19.63;;;9.10;99.90;;;;;;5001141;28;20182;-81
2021/11/11 11:21:55;;;;;;;23.30;18.48;;;9.10;99.90;;;;;;4978133;28;20187;-80
2021/11/11 11:24:24;;;;;;;24.83;19.98;;;9.10;99.90;;;;;;4999844;28;20235;-81
2021/11/11 11:26:52;;;;;;;24.13;19.48;;;9.10;99.90;;;;;;5009036;28;20202;-81
2021/11/11 11:30:11;;;;;;;31.23;24.27;;;9.10;99.90;;;;;;5017102;28;20252;-82
2021/11/11 11:32:17;;;;;;;25.05;20.48;;;9.00;99.90;;;;;;4976193;28;20685;-82
2021/11/11 11:34:48;;;;;;;27.92;22.15;;;8.90;99.90;;;;;;4999067;28;20173;-82
2021/11/11 11:37:35;;;;;;;29.10;22.40;;;8.80;99.90;;;;;;5002387;28;20209;-81
2021/11/11 11:40:03;;;;;;;29.88;19.95;;;8.70;99.90;;;;;;5016307;28;20185;-81
2021/11/11 11:42:34;;;;;;;31.27;23.10;;;8.80;99.90;;;;;;5008435;28;20281;-81
2021/11/11 11:45:04;;;;;;;35.45;25.38;;;8.70;99.90;;;;;;4998316;28;20187;-81
2021/11/11 11:50:16;;;;;;;33.80;22.55;;;8.70;99.90;;;;;;5032672;28;20162;-80
2021/11/11 11:52:47;;;;;;;25.67;21.92;;;8.70;99.90;;;;;;5038011;28;20182;-81
2021/11/11 11:56:05;;;;;;;28.63;21.58;;;8.70;99.90;;;;;;5020740;28;20174;-80
2021/11/11 11:58:10;;;;;;;27.35;21.73;;;8.70;99.90;;;;;;5003474;28;20179;-80
2021/11/11 12:06:26;;;;;;;37.55;27.13;;;8.80;99.90;;;;;;4985942;28;20190;-80
2021/11/11 12:16:57;;;;;;;30.48;23.23;;;8.90;99.90;;;;;;4974810;28;20659;-81
2021/11/11 12:40:31;;;;;;;37.65;29.02;;;9.40;99.90;;;;;;4996840;28;20182;-81
2021/11/11 12:43:20;;;;;;;34.75;27.15;;;9.50;99.90;;;;;;5004696;28;20217;-81
2021/11/11 12:45:46;;;;;;;38.55;27.45;;;9.50;99.90;;;;;;4990984;28;20204;-80
2021/11/11 12:48:14;;;;;;;41.97;30.07;;;9.60;99.90;;;;;;4988981;28;20171;-80
2021/11/11 12:51:02;;;;;;;37.55;28.17;;;9.70;99.90;;;;;;5005101;28;20570;-80
2021/11/11 12:53:30;;;;;;;35.20;26.05;;;9.70;99.90;;;;;;4953096;28;20203;-81
2021/11/11 12:55:59;;;;;;;37.05;26.35;;;9.70;99.90;;;;;;4965856;28;20239;-81
2021/11/11 12:58:37;;;;;;;32.75;24.50;;;9.80;99.90;;;;;;4985803;28;20254;-81
2021/11/11 13:01:10;;;;;;;34.95;26.55;;;9.80;99.90;;;;;;4996055;28;20250;-83
2021/11/11 13:03:53;;;;;;;35.30;26.55;;;9.90;99.90;;;;;;5009770;28;20203;-83
2021/11/11 13:06:41;;;;;;;35.28;25.80;;;10.00;99.90;;;;;;4996014;28;20290;-82
2021/11/11 13:09:31;;;;;;;31.20;23.85;;;10.10;99.90;;;;;;4998915;28;20206;-82
2021/11/11 13:12:06;;;;;;;39.95;27.60;;;10.10;99.90;;;;;;5010528;28;20198;-82
2021/11/11 13:14:53;;;;;;;31.92;25.50;;;10.20;99.90;;;;;;4987530;28;20270;-82
2021/11/11 13:17:21;;;;;;;31.67;24.30;;;10.30;99.90;;;;;;5001994;28;20175;-80
2021/11/11 13:20:05;;;;;;;33.33;23.60;;;10.30;99.90;;;;;;4985816;28;20175;-80
2021/11/11 13:22:39;;;;;;;32.15;23.95;;;10.40;99.90;;;;;;4980954;28;20186;-81
2021/11/11 13:25:34;;;;;;;32.55;24.75;;;10.40;99.90;;;;;;5003152;28;20539;-80
2021/11/11 15:15:33;;;;;;;34.67;26.65;;;10.90;99.90;;;;;;4972317;28;20195;-81
2021/11/11 15:17:57;;;;;;;36.63;27.17;;;10.90;99.90;;;;;;4950151;28;20199;-82
2021/11/11 16:02:40;;;;;;;33.75;22.95;;;10.10;99.90;;;;;;4987711;28;20178;-74
2021/11/11 16:27:09;;;;;;;34.88;24.27;;;9.50;99.90;;;;;;4992023;28;20207;-73
2021/11/11 16:29:35;;;;;;;33.10;23.17;;;9.40;99.90;;;;;;4996303;28;20221;-74
2021/11/11 16:32:01;;;;;;;31.30;23.37;;;9.40;99.90;;;;;;4976614;28;20226;-74
2021/11/11 16:34:28;;;;;;;35.27;23.10;;;9.30;99.90;;;;;;4959849;28;20167;-73
2021/11/11 16:36:54;;;;;;;32.35;23.08;;;9.30;99.90;;;;;;4997965;28;20201;-75
2021/11/11 16:39:20;;;;;;;34.80;24.77;;;9.30;99.90;;;;;;4995647;28;20731;-74
2021/11/11 16:41:47;;;;;;;32.33;25.02;;;9.20;99.90;;;;;;4997958;28;20211;-74
2021/11/11 16:44:13;;;;;;;38.35;25.52;;;9.20;99.90;;;;;;4994219;28;20183;-74
2021/11/11 16:46:41;;;;;;;37.90;26.50;;;9.10;99.90;;;;;;4991779;28;20282;-74
2021/11/11 16:49:08;;;;;;;34.67;26.52;;;9.10;99.90;;;;;;4992642;28;20963;-74
2021/11/11 16:51:35;;;;;;;34.75;25.70;;;9.00;99.90;;;;;;4992394;28;20209;-74
2021/11/11 16:54:01;;;;;;;32.35;24.20;;;9.00;99.90;;;;;;4985564;28;20199;-74
2021/11/11 16:56:27;;;;;;;33.33;26.65;;;9.00;99.90;;;;;;4991875;28;20616;-74
2021/11/11 16:58:55;;;;;;;35.95;25.15;;;8.90;99.90;;;;;;4992460;28;20179;-74
2021/11/11 17:01:20;;;;;;;35.50;25.20;;;8.90;99.90;;;;;;4992043;28;20214;-74